createdAt,value
2017-09-21T00:01:36.954Z,7.27
2017-09-21T00:04:05.637Z,8.13
2017-09-21T00:06:33.920Z,7.23
2017-09-21T00:09:02.226Z,7.33
2017-09-21T00:11:32.030Z,8.47
2017-09-21T00:14:00.349Z,7.43
2017-09-21T00:16:28.693Z,8.10
2017-09-21T00:18:58.493Z,12.80
2017-09-21T00:21:26.801Z,7.43
2017-09-21T00:23:55.097Z,10.53
2017-09-21T00:26:24.155Z,8.57
2017-09-21T00:28:52.578Z,9.13
2017-09-21T00:31:21.672Z,7.10
2017-09-21T00:33:49.940Z,8.30
2017-09-21T00:36:18.243Z,7.00
2017-09-21T00:38:47.292Z,7.30
2017-09-21T00:41:15.947Z,10.47
2017-09-21T00:43:44.223Z,8.17
2017-09-21T00:46:13.268Z,9.73
2017-09-21T00:48:41.576Z,9.80
2017-09-21T00:51:09.932Z,8.23
2017-09-21T00:53:38.206Z,8.70
2017-09-21T00:56:06.510Z,9.40
2017-09-21T00:58:34.809Z,15.43
2017-09-21T01:01:03.099Z,10.83
2017-09-21T01:03:31.476Z,10.33
2017-09-21T01:06:01.276Z,10.00
2017-09-21T01:08:30.070Z,9.10
2017-09-21T01:10:58.427Z,9.13
2017-09-21T01:13:26.715Z,10.53
2017-09-21T01:15:55.921Z,10.50
2017-09-21T01:18:24.214Z,14.90
2017-09-21T01:20:52.520Z,11.97
2017-09-21T01:23:20.820Z,12.10
2017-09-21T01:25:49.118Z,12.67
2017-09-21T01:28:17.464Z,13.33
2017-09-21T01:30:46.564Z,10.73
2017-09-21T01:33:14.868Z,10.73
2017-09-21T01:35:44.907Z,12.97
2017-09-21T01:38:13.483Z,12.67
2017-09-21T01:40:41.811Z,12.13
2017-09-21T01:43:10.119Z,11.23
2017-09-21T01:45:39.907Z,11.83
2017-09-21T01:48:08.562Z,12.87
2017-09-21T01:50:36.939Z,12.73
2017-09-21T01:53:05.964Z,11.90
2017-09-21T01:55:34.267Z,12.67
2017-09-21T01:58:03.366Z,17.73
2017-09-21T02:00:33.182Z,12.67
2017-09-21T02:03:01.540Z,15.00
2017-09-21T02:05:30.179Z,12.97
2017-09-21T02:08:01.001Z,14.30
2017-09-21T02:10:29.288Z,16.20
2017-09-21T02:12:58.359Z,14.50
2017-09-21T02:15:26.767Z,12.63
2017-09-21T02:17:55.075Z,13.60
2017-09-21T02:20:23.360Z,10.93
2017-09-21T02:22:51.950Z,13.47
2017-09-21T02:25:21.056Z,13.40
2017-09-21T02:27:50.091Z,18.70
2017-09-21T02:30:18.439Z,13.90
2017-09-21T02:32:47.492Z,14.07
2017-09-21T02:35:16.046Z,13.60
2017-09-21T02:37:44.372Z,13.90
2017-09-21T02:40:12.651Z,14.10
2017-09-21T02:42:41.001Z,13.70
2017-09-21T02:45:09.267Z,17.93
2017-09-21T02:47:37.576Z,14.83
2017-09-21T02:50:05.926Z,15.03
2017-09-21T02:52:35.110Z,14.93
2017-09-21T02:55:03.420Z,16.07
2017-09-21T02:57:31.737Z,15.13
2017-09-21T03:00:00.036Z,13.87
2017-09-21T03:02:28.381Z,14.40
2017-09-21T03:04:56.684Z,15.53
2017-09-21T03:07:25.054Z,15.00
2017-09-21T03:09:53.357Z,16.60
2017-09-21T03:12:22.194Z,17.77
2017-09-21T03:14:51.719Z,14.17
2017-09-21T03:17:20.040Z,16.33
2017-09-21T03:19:48.343Z,19.40
2017-09-21T03:22:17.496Z,17.70
2017-09-21T03:24:45.818Z,18.50
2017-09-21T03:27:14.131Z,21.80
2017-09-21T03:29:42.430Z,18.60
2017-09-21T03:32:10.744Z,20.90
2017-09-21T03:34:39.051Z,19.40
2017-09-21T03:37:07.379Z,27.20
2017-09-21T03:39:35.709Z,21.07
2017-09-21T03:42:04.359Z,20.90
2017-09-21T03:44:32.664Z,21.30
2017-09-21T03:47:00.962Z,21.73
2017-09-21T03:49:29.317Z,18.97
2017-09-21T03:51:57.876Z,21.37
2017-09-21T03:54:26.200Z,22.10
2017-09-21T03:56:54.513Z,21.23
2017-09-21T03:59:23.620Z,21.20
2017-09-21T04:01:51.922Z,22.37
2017-09-21T04:04:20.230Z,20.50
2017-09-21T04:06:48.510Z,23.97
2017-09-21T04:09:17.233Z,23.80
2017-09-21T04:11:45.518Z,25.63
2017-09-21T04:14:14.629Z,22.10
2017-09-21T04:16:42.925Z,25.93
2017-09-21T04:19:12.170Z,23.73
2017-09-21T04:21:40.478Z,29.20
2017-09-21T04:24:09.567Z,22.20
2017-09-21T04:26:38.160Z,26.53
2017-09-21T04:29:07.252Z,24.63
2017-09-21T04:31:35.587Z,22.13
2017-09-21T04:34:03.875Z,26.10
2017-09-21T04:36:32.186Z,22.50
2017-09-21T04:39:00.496Z,30.93
2017-09-21T04:41:29.103Z,31.73
2017-09-21T04:43:57.433Z,27.73
2017-09-21T04:46:25.740Z,24.83
2017-09-21T04:48:54.055Z,27.33
2017-09-21T04:51:22.388Z,30.17
2017-09-21T04:53:50.699Z,25.10
2017-09-21T04:56:19.780Z,24.73
2017-09-21T04:58:48.615Z,28.00
2017-09-21T05:01:17.724Z,27.23
2017-09-21T05:03:46.314Z,26.00
2017-09-21T05:06:15.370Z,27.80
2017-09-21T05:08:43.662Z,25.70
2017-09-21T05:11:12.740Z,31.00
2017-09-21T05:13:41.024Z,26.77
2017-09-21T05:16:09.351Z,28.27
2017-09-21T05:18:38.418Z,31.57
2017-09-21T05:21:07.515Z,25.87
2017-09-21T05:23:35.870Z,26.87
2017-09-21T05:26:04.181Z,28.80
2017-09-21T05:28:33.104Z,27.10
2017-09-21T05:31:02.217Z,24.70
2017-09-21T05:33:30.576Z,26.07
2017-09-21T05:35:59.634Z,27.00
2017-09-21T05:38:28.103Z,32.13
2017-09-21T05:40:56.738Z,30.63
2017-09-21T05:43:25.048Z,29.40
2017-09-21T05:45:53.359Z,31.47
2017-09-21T05:48:21.695Z,26.77
2017-09-21T05:50:49.959Z,29.17
2017-09-21T05:53:18.275Z,33.07
2017-09-21T05:55:46.885Z,29.50
2017-09-21T05:58:16.048Z,28.77
2017-09-21T06:00:45.242Z,27.97
2017-09-21T06:03:14.374Z,30.97
2017-09-21T06:05:43.442Z,28.87
2017-09-21T06:08:11.739Z,27.63
2017-09-21T06:10:41.490Z,26.10
2017-09-21T06:13:09.804Z,26.87
2017-09-21T06:15:38.062Z,26.77
2017-09-21T06:18:06.803Z,27.07
2017-09-21T06:20:36.595Z,23.53
2017-09-21T06:23:05.717Z,29.87
2017-09-21T06:25:34.090Z,27.27
2017-09-21T06:28:02.439Z,28.73
2017-09-21T06:30:30.880Z,23.93
2017-09-21T06:32:59.894Z,26.83
2017-09-21T06:35:28.182Z,25.70
2017-09-21T06:37:56.491Z,27.03
2017-09-21T06:40:24.786Z,24.27
2017-09-21T06:42:53.135Z,22.83
2017-09-21T06:45:21.470Z,23.17
2017-09-21T06:47:49.818Z,23.20
2017-09-21T06:50:19.314Z,28.33
2017-09-21T06:52:47.648Z,24.50
2017-09-21T06:55:16.039Z,23.73
2017-09-21T06:57:45.493Z,26.13
2017-09-21T07:00:14.937Z,25.73
2017-09-21T07:02:44.759Z,23.10
2017-09-21T07:05:13.100Z,23.33
2017-09-21T07:07:43.071Z,19.83
2017-09-21T07:10:12.958Z,23.03
2017-09-21T07:12:42.782Z,22.87
2017-09-21T07:15:11.151Z,25.00
2017-09-21T07:17:39.755Z,20.20
2017-09-21T07:20:08.152Z,20.50
2017-09-21T07:22:36.501Z,19.27
2017-09-21T07:25:04.820Z,23.27
2017-09-21T07:27:36.586Z,22.53
2017-09-21T07:30:05.653Z,21.53
2017-09-21T07:32:33.962Z,28.27
2017-09-21T07:35:03.970Z,19.27
2017-09-21T07:37:33.944Z,26.00
2017-09-21T07:40:04.611Z,25.33
2017-09-21T07:42:34.421Z,21.63
2017-09-21T07:45:04.284Z,24.30
2017-09-21T07:47:34.105Z,21.10
2017-09-21T07:50:03.936Z,21.47
2017-09-21T07:52:33.780Z,20.27
2017-09-21T07:55:03.631Z,18.77
2017-09-21T07:57:34.245Z,19.60
2017-09-21T08:00:04.090Z,72.93
2017-09-21T08:02:33.975Z,41.17
2017-09-21T08:05:03.893Z,15.20
2017-09-21T08:07:32.259Z,31.23
2017-09-21T08:10:00.701Z,20.13
2017-09-21T08:12:29.016Z,20.47
2017-09-21T08:14:57.621Z,20.23
2017-09-21T08:17:25.943Z,15.10
2017-09-21T08:19:54.783Z,13.47
2017-09-21T08:22:23.129Z,16.63
2017-09-21T08:24:52.247Z,17.27
2017-09-21T08:27:21.678Z,16.57
2017-09-21T08:29:50.743Z,22.73
2017-09-21T08:32:20.536Z,19.67
2017-09-21T08:34:48.855Z,13.03
2017-09-21T08:37:17.946Z,19.60
2017-09-21T08:39:47.050Z,16.70
2017-09-21T08:42:16.125Z,13.97
2017-09-21T08:44:44.419Z,15.33
2017-09-21T08:47:13.193Z,16.70
2017-09-21T08:49:43.122Z,23.63
2017-09-21T08:52:23.791Z,21.20
2017-09-21T08:54:54.251Z,13.07
2017-09-21T08:57:24.075Z,20.90
2017-09-21T08:59:53.924Z,10.07
2017-09-21T09:02:23.781Z,10.20
2017-09-21T09:04:53.605Z,8.43
2017-09-21T09:07:23.414Z,8.87
2017-09-21T09:09:53.474Z,8.20
2017-09-21T09:12:23.285Z,11.87
2017-09-21T09:14:53.114Z,7.83
2017-09-21T09:17:23.684Z,9.00
2017-09-21T09:19:53.516Z,12.67
2017-09-21T09:22:23.413Z,7.60
2017-09-21T09:24:53.231Z,10.87
2017-09-21T09:27:23.081Z,6.60
2017-09-21T09:29:52.903Z,11.03
2017-09-21T09:32:22.717Z,9.07
2017-09-21T09:34:52.578Z,6.93
2017-09-21T09:37:22.424Z,10.23
2017-09-21T09:39:52.276Z,11.25
2017-09-21T09:42:23.004Z,22.40
2017-09-21T09:44:53.742Z,14.13
2017-09-21T09:47:23.606Z,10.88
2017-09-21T09:49:53.461Z,9.90
2017-09-21T09:52:23.479Z,9.83
2017-09-21T09:54:53.322Z,5.43
2017-09-21T09:57:23.126Z,8.47
2017-09-21T09:59:52.993Z,7.13
2017-09-21T10:02:22.830Z,6.47
2017-09-21T10:04:52.661Z,6.30
2017-09-21T10:07:22.790Z,9.20
2017-09-21T10:09:52.591Z,11.03
2017-09-21T10:12:22.389Z,8.93
2017-09-21T10:14:52.252Z,5.70
2017-09-21T10:17:22.191Z,10.40
2017-09-21T10:19:52.413Z,6.93
2017-09-21T10:22:22.212Z,5.43
2017-09-21T10:24:52.015Z,7.53
2017-09-21T10:27:20.197Z,7.10
2017-09-21T10:29:48.507Z,4.93
2017-09-21T10:32:16.801Z,7.93
2017-09-21T10:34:45.327Z,8.80
2017-09-21T10:37:13.599Z,8.03
2017-09-21T10:39:41.907Z,6.90
2017-09-21T10:42:11.887Z,7.03
2017-09-21T10:44:41.683Z,5.47
2017-09-21T10:47:11.521Z,7.50
2017-09-21T10:49:41.341Z,8.20
2017-09-21T10:52:11.164Z,3.60
2017-09-21T10:54:41.000Z,5.50
2017-09-21T10:57:10.888Z,6.57
2017-09-21T10:59:40.694Z,7.53
2017-09-21T11:02:08.884Z,5.70
2017-09-21T11:04:37.162Z,5.10
2017-09-21T11:07:05.467Z,12.23
2017-09-21T11:09:33.839Z,6.70
2017-09-21T11:12:03.821Z,9.03
2017-09-21T11:14:33.638Z,5.23
2017-09-21T11:17:03.475Z,8.00
2017-09-21T11:19:33.285Z,2.97
2017-09-21T11:22:03.112Z,8.33
2017-09-21T11:24:32.922Z,4.90
2017-09-21T11:27:02.770Z,3.33
2017-09-21T11:29:32.700Z,4.70
2017-09-21T11:32:03.476Z,6.23
2017-09-21T11:34:33.320Z,4.00
2017-09-21T11:37:03.163Z,3.90
2017-09-21T11:39:31.379Z,4.57
2017-09-21T11:42:00.446Z,4.80
2017-09-21T11:44:30.287Z,4.20
2017-09-21T11:46:59.389Z,7.35
2017-09-21T11:49:28.462Z,9.33
2017-09-21T11:51:58.303Z,9.57
2017-09-21T11:54:27.346Z,7.73
2017-09-21T11:56:55.661Z,7.30
2017-09-21T11:59:28.692Z,9.03
2017-09-21T12:01:57.006Z,9.20
2017-09-21T12:04:25.522Z,9.17
2017-09-21T12:06:53.870Z,14.80
2017-09-21T12:09:22.188Z,11.83
2017-09-21T12:11:50.511Z,12.33
2017-09-21T12:14:19.573Z,6.90
2017-09-21T12:16:49.402Z,14.10
2017-09-21T12:19:18.770Z,14.32
2017-09-21T12:21:47.067Z,10.80
2017-09-21T12:24:16.918Z,6.93
2017-09-21T12:26:45.293Z,8.70
2017-09-21T12:29:15.379Z,6.37
2017-09-21T12:31:43.944Z,6.33
2017-09-21T12:34:12.270Z,11.10
2017-09-21T12:36:40.589Z,6.17
2017-09-21T12:39:09.752Z,7.40
2017-09-21T12:41:38.046Z,14.20
2017-09-21T12:44:07.118Z,9.67
2017-09-21T12:46:35.519Z,11.97
2017-09-21T12:49:03.865Z,14.02
2017-09-21T12:51:32.368Z,11.13
2017-09-21T12:54:00.672Z,48.40
2017-09-21T12:56:29.020Z,18.23
2017-09-21T12:58:57.463Z,27.43
2017-09-21T13:01:25.798Z,19.60
2017-09-21T13:03:54.918Z,19.80
2017-09-21T13:06:23.225Z,20.03
2017-09-21T13:08:53.153Z,28.00
2017-09-21T13:11:21.784Z,28.63
2017-09-21T13:13:50.124Z,25.50
2017-09-21T13:16:19.221Z,22.40
2017-09-21T13:18:48.409Z,28.60
2017-09-21T13:21:17.675Z,26.77
2017-09-21T13:23:46.655Z,22.80
2017-09-21T13:26:14.979Z,28.27
2017-09-21T13:28:44.047Z,23.03
2017-09-21T13:31:12.569Z,21.20
2017-09-21T13:33:40.912Z,22.00
2017-09-21T13:36:09.217Z,27.13
2017-09-21T13:38:37.879Z,21.77
2017-09-21T13:41:06.193Z,21.57
2017-09-21T13:43:34.540Z,21.70
2017-09-21T13:46:02.863Z,22.80
2017-09-21T13:48:31.179Z,22.70
2017-09-21T13:51:00.264Z,18.57
2017-09-21T13:53:28.562Z,23.63
2017-09-21T13:55:57.124Z,23.57
2017-09-21T13:58:26.216Z,24.33
2017-09-21T14:00:54.540Z,20.37
2017-09-21T14:03:23.639Z,25.60
2017-09-21T14:05:53.592Z,18.53
2017-09-21T14:08:23.460Z,14.83
2017-09-21T14:10:51.611Z,13.07
2017-09-21T14:13:21.586Z,14.00
2017-09-21T14:15:51.423Z,42.00
2017-09-21T14:18:21.253Z,14.07
2017-09-21T14:20:51.129Z,14.60
2017-09-21T14:23:21.310Z,13.73
2017-09-21T14:25:51.161Z,12.37
2017-09-21T14:28:21.010Z,12.43
2017-09-21T14:30:50.819Z,17.13
2017-09-21T14:33:20.686Z,11.23
2017-09-21T14:35:50.542Z,12.10
2017-09-21T14:38:20.398Z,10.60
2017-09-21T14:40:50.555Z,15.65
2017-09-21T14:43:20.987Z,11.18
2017-09-21T14:45:49.827Z,9.27
2017-09-21T14:48:18.961Z,10.57
2017-09-21T14:50:48.784Z,9.30
2017-09-21T14:53:17.488Z,8.97
2017-09-21T14:55:45.762Z,10.97
2017-09-21T14:58:14.816Z,8.10
2017-09-21T15:00:43.149Z,8.90
2017-09-21T15:03:12.661Z,15.47
2017-09-21T15:05:41.755Z,9.33
2017-09-21T15:08:10.072Z,10.20
2017-09-21T15:10:38.610Z,9.80
2017-09-21T15:13:06.918Z,10.13
2017-09-21T15:15:35.212Z,9.83
2017-09-21T15:18:03.526Z,15.40
2017-09-21T15:20:31.844Z,11.87
2017-09-21T15:23:00.155Z,10.13
2017-09-21T15:25:29.530Z,8.80
2017-09-21T15:27:58.095Z,9.03
2017-09-21T15:30:26.388Z,10.00
2017-09-21T15:32:54.728Z,8.60
2017-09-21T15:35:23.806Z,8.37
2017-09-21T15:37:52.889Z,10.00
2017-09-21T15:40:22.315Z,8.90
2017-09-21T15:42:51.371Z,10.80
2017-09-21T15:45:19.995Z,10.50
2017-09-21T15:47:49.078Z,10.63
2017-09-21T15:50:18.879Z,10.13
2017-09-21T15:52:47.194Z,13.57
2017-09-21T15:55:16.274Z,10.23
2017-09-21T15:57:44.605Z,11.33
2017-09-21T16:00:14.012Z,14.13
2017-09-21T16:02:42.306Z,17.33
2017-09-21T16:05:10.625Z,16.57
2017-09-21T16:07:38.949Z,19.20
2017-09-21T16:10:07.263Z,12.47
2017-09-21T16:12:35.567Z,14.97
2017-09-21T16:15:03.904Z,13.00
2017-09-21T16:17:32.211Z,14.83
2017-09-21T16:20:00.560Z,16.77
2017-09-21T16:22:30.190Z,17.07
2017-09-21T16:24:58.760Z,12.33
2017-09-21T16:27:28.523Z,13.10
2017-09-21T16:29:57.195Z,22.47
2017-09-21T16:32:25.503Z,12.77
2017-09-21T16:34:53.821Z,11.67
2017-09-21T16:37:22.937Z,11.63
2017-09-21T16:39:51.642Z,11.30
2017-09-21T16:42:20.206Z,11.50
2017-09-21T16:44:48.494Z,11.33
2017-09-21T16:47:16.797Z,13.07
2017-09-21T16:49:45.079Z,11.27
2017-09-21T16:52:13.367Z,12.57
2017-09-21T16:54:41.768Z,14.73
2017-09-21T16:57:10.068Z,18.50
2017-09-21T16:59:38.653Z,16.30
2017-09-21T17:02:06.938Z,15.20
2017-09-21T17:04:36.022Z,15.47
2017-09-21T17:07:04.364Z,14.57
2017-09-21T17:09:32.678Z,15.10
2017-09-21T17:12:01.007Z,15.80
2017-09-21T17:14:30.074Z,18.33
2017-09-21T17:16:59.459Z,15.23
2017-09-21T17:19:27.803Z,13.50
2017-09-21T17:21:56.096Z,18.13
2017-09-21T17:24:24.407Z,18.47
2017-09-21T17:26:52.723Z,15.73
2017-09-21T17:29:21.031Z,15.07
2017-09-21T17:31:49.321Z,16.30
2017-09-21T17:34:17.949Z,14.23
2017-09-21T17:36:46.262Z,19.07
2017-09-21T17:39:15.324Z,17.67
2017-09-21T17:41:43.636Z,19.17
2017-09-21T17:44:11.918Z,18.00
2017-09-21T17:46:40.247Z,17.13
2017-09-21T17:49:08.524Z,17.73
2017-09-21T17:51:37.087Z,15.47
2017-09-21T17:54:06.275Z,17.50
2017-09-21T17:56:36.879Z,21.37
2017-09-21T17:59:05.200Z,18.47
2017-09-21T18:01:34.265Z,19.93
2017-09-21T18:04:02.579Z,22.60
2017-09-21T18:06:31.648Z,24.70
2017-09-21T18:09:00.252Z,18.83
2017-09-21T18:11:28.572Z,22.77
2017-09-21T18:13:56.867Z,19.57
2017-09-21T18:16:25.182Z,23.53
2017-09-21T18:18:53.564Z,25.47
2017-09-21T18:21:21.862Z,28.30
2017-09-21T18:23:51.144Z,23.53
2017-09-21T18:26:19.448Z,30.37
2017-09-21T18:28:47.735Z,27.40
2017-09-21T18:31:16.045Z,29.93
2017-09-21T18:33:44.344Z,30.13
2017-09-21T18:36:12.650Z,29.00
2017-09-21T18:38:41.549Z,27.87
2017-09-21T18:41:10.493Z,30.87
2017-09-21T18:43:39.542Z,32.93
2017-09-21T18:46:07.862Z,32.30
2017-09-21T18:48:36.920Z,41.60
2017-09-21T18:51:05.492Z,34.30
2017-09-21T18:53:33.796Z,40.37
2017-09-21T18:56:02.087Z,28.77
2017-09-21T18:58:30.391Z,31.13
2017-09-21T19:00:59.522Z,31.60
2017-09-21T19:03:28.640Z,31.43
2017-09-21T19:05:56.919Z,35.23
2017-09-21T19:08:25.255Z,33.63
2017-09-21T19:10:54.318Z,30.63
2017-09-21T19:13:22.640Z,29.50
2017-09-21T19:15:50.951Z,28.53
2017-09-21T19:25:07.683Z,24.97
2017-09-21T19:27:35.999Z,30.87
2017-09-21T19:30:04.298Z,35.93
2017-09-21T19:32:32.667Z,27.87
2017-09-21T19:35:00.965Z,30.90
2017-09-21T19:37:29.281Z,32.93
2017-09-21T19:39:57.596Z,34.90
2017-09-21T19:42:27.429Z,37.70
2017-09-21T19:44:56.502Z,35.67
2017-09-21T19:47:25.203Z,34.63
2017-09-21T19:49:53.490Z,33.50
2017-09-21T19:52:21.840Z,31.57
2017-09-21T19:54:50.246Z,28.33
2017-09-21T19:57:18.558Z,25.70
2017-09-21T19:59:47.618Z,31.63
2017-09-21T20:02:16.324Z,34.53
2017-09-21T20:04:44.644Z,35.17
2017-09-21T20:07:12.977Z,36.60
2017-09-21T20:09:41.970Z,31.93
2017-09-21T20:12:10.259Z,30.37
2017-09-21T20:14:38.571Z,34.67
2017-09-21T20:17:07.667Z,38.43
2017-09-21T20:19:36.754Z,35.40
2017-09-21T20:22:05.847Z,34.20
2017-09-21T20:24:34.564Z,39.00
2017-09-21T20:27:03.626Z,35.77
2017-09-21T20:29:31.964Z,36.97
2017-09-21T20:32:00.277Z,30.47
2017-09-21T20:34:29.164Z,39.40
2017-09-21T20:36:57.476Z,35.00
2017-09-21T20:39:25.833Z,29.40
2017-09-21T20:41:54.154Z,34.87
2017-09-21T20:44:22.479Z,27.90
2017-09-21T20:46:50.772Z,27.00
2017-09-21T20:49:19.082Z,29.70
2017-09-21T20:51:47.396Z,30.30
2017-09-21T20:54:16.505Z,33.20
2017-09-21T20:56:45.559Z,29.13
2017-09-21T20:59:16.707Z,27.90
2017-09-21T21:01:45.002Z,27.97
2017-09-21T21:04:14.998Z,29.10
2017-09-21T21:06:48.498Z,29.00
2017-09-21T21:09:18.542Z,29.07
2017-09-21T21:11:46.904Z,34.63
2017-09-21T21:14:15.215Z,31.43
2017-09-21T21:16:43.554Z,31.50
2017-09-21T21:19:11.914Z,35.20
2017-09-21T21:21:41.990Z,36.27
2017-09-21T21:24:17.561Z,32.33
2017-09-21T21:26:49.367Z,31.60
2017-09-21T21:29:20.555Z,29.63
2017-09-21T21:31:51.107Z,26.73
2017-09-21T21:34:20.520Z,28.40
2017-09-21T21:36:48.857Z,27.37
2017-09-21T21:39:19.520Z,26.23
2017-09-21T21:41:47.862Z,28.27
2017-09-21T21:44:17.701Z,27.70
2017-09-21T21:46:46.035Z,30.47
2017-09-21T21:49:14.340Z,27.20
2017-09-21T21:51:42.672Z,24.97
2017-09-21T21:54:11.728Z,25.80
2017-09-21T21:56:40.050Z,23.83
2017-09-21T21:59:09.140Z,23.73
2017-09-21T22:01:37.708Z,23.27
2017-09-21T22:04:06.024Z,23.77
2017-09-21T22:06:35.121Z,27.07
2017-09-21T22:09:03.506Z,21.13
2017-09-21T22:11:31.808Z,20.50
2017-09-21T22:14:01.135Z,21.03
2017-09-21T22:16:29.443Z,20.53
2017-09-21T22:18:57.975Z,19.63
2017-09-21T22:21:27.059Z,18.33
2017-09-21T22:23:56.351Z,17.80
2017-09-21T22:26:25.758Z,20.50
2017-09-21T22:28:54.047Z,22.80
2017-09-21T22:31:23.172Z,19.33
2017-09-21T22:33:51.817Z,19.80
2017-09-21T22:36:20.128Z,17.90
2017-09-21T22:38:49.201Z,18.70
2017-09-21T22:41:17.796Z,19.07
2017-09-21T22:43:46.095Z,17.47
2017-09-21T22:46:14.391Z,20.17
2017-09-21T22:48:43.494Z,21.00
2017-09-21T22:51:11.803Z,18.73
2017-09-21T22:53:40.379Z,19.13
2017-09-21T22:56:09.176Z,19.23
2017-09-21T22:58:37.503Z,18.40
2017-09-21T23:01:06.095Z,19.57
2017-09-21T23:03:34.435Z,21.23
2017-09-21T23:06:02.739Z,20.93
2017-09-21T23:08:31.322Z,20.77
2017-09-21T23:10:59.615Z,21.83
2017-09-21T23:13:27.947Z,23.70
2017-09-21T23:15:57.299Z,24.47
2017-09-21T23:18:25.635Z,20.57
2017-09-21T23:20:54.680Z,21.83
2017-09-21T23:23:22.989Z,21.53
2017-09-21T23:25:51.308Z,20.43
2017-09-21T23:28:19.891Z,24.90
2017-09-21T23:30:48.210Z,25.73
2017-09-21T23:33:16.525Z,25.83
2017-09-21T23:35:45.185Z,23.53
2017-09-21T23:38:13.496Z,22.30
2017-09-21T23:40:41.784Z,22.00
2017-09-21T23:43:11.970Z,25.57
2017-09-21T23:45:40.283Z,24.40
2017-09-21T23:48:08.580Z,25.13
2017-09-21T23:50:36.966Z,26.17
2017-09-21T23:53:06.053Z,28.73
2017-09-21T23:55:34.769Z,29.30
2017-09-21T23:58:03.800Z,23.30
